Randy J. Adams — WDG6297 — position and weather

sailwx.info

Track history (hours):
 
Tides and Currents Weather Stations Pressure Air Temp Water Temp Dewpoint Dewpoint Depression Visibility Wind Speed Wind Dir Waves Ship Positions

Randy J. Adams

Owner: Blessey Enterprises, Inc., Harahan, LA. More information available from US FCC via Universal Licensing System and Coast Guard Vessel Documentation Center.

Last reported at 2017-Oct-10 22:30 UTC. Time now 2017-Oct-22 08:14 UTC.
Position N 32°01' W 091°04'.
Warning: this ship's position is 11 days out of date.

Length 27 m; draft 2.7 m.

Type: Towing. MMSI: 367555480.

Date/timePositionNaut miles runAvg speedWind from/ knotsBaromVisibWave heightAir tempDewpointWater temp
2017-Oct-10 22:30N 32°01' W 091°04'6 7.3
2017-Oct-10 21:45N 32°06' W 091°06'3 5.1
2017-Oct-10 21:14N 32°07' W 091°03'2 8.0
2017-Oct-10 21:00N 32°07' W 091°01'4 8.8
2017-Oct-10 20:30N 32°11' W 090°60'5 9.8
2017-Oct-10 20:00N 32°16' W 090°58'3 6.3
2017-Oct-10 19:30N 32°18' W 090°55'0 0.0
2017-Oct-10 19:00N 32°18' W 090°55'0 0.0
2017-Oct-10 18:30N 32°18' W 090°55'0 0.0
2017-Oct-10 18:00N 32°18' W 090°55'0 0.0
2017-Oct-10 17:30N 32°18' W 090°55'0 0.0
2017-Oct-10 17:00N 32°18' W 090°55'0 0.0
2017-Oct-10 16:30N 32°18' W 090°55'0 0.0
2017-Oct-10 16:00N 32°18' W 090°55'0 0.0
2017-Oct-10 15:30N 32°18' W 090°55'0 0.0
2017-Oct-10 15:00N 32°18' W 090°55'0 0.0
2017-Oct-10 14:00N 32°18' W 090°55'0 0.0
2017-Oct-10 13:30N 32°18' W 090°55'1 1.5
2017-Oct-10 13:00N 32°19' W 090°54'3 5.9
2017-Oct-10 12:30N 32°21' W 090°57'3 6.4
2017-Oct-10 12:00N 32°22' W 091°00'4 7.0
2017-Oct-10 11:30N 32°26' W 091°01'4 8.4
2017-Oct-10 11:00N 32°28' W 091°06'5 7.8
2017-Oct-10 10:18N 32°33' W 091°06'3 8.6
2017-Oct-10 10:00N 32°35' W 091°08'5 7.8
2017-Oct-10 09:23N 32°40' W 091°08'  
2017-Oct-06 12:32N 32°46' W 091°10'0 0.1
2017-Oct-06 12:28N 32°46' W 091°10'4 1.6
2017-Oct-06 09:51N 32°44' W 091°05'0 0.0
2017-Oct-06 09:30N 32°44' W 091°05'1 1.4
2017-Oct-06 09:00N 32°44' W 091°04'0 0.0
2017-Oct-06 08:30N 32°44' W 091°04'0 0.4
2017-Oct-06 08:00N 32°44' W 091°04'5 3.5
2017-Oct-06 06:36N 32°40' W 091°08'1 4.1
2017-Oct-06 06:28N 32°40' W 091°08'2 4.2
2017-Oct-06 06:00N 32°38' W 091°09'2 4.6
2017-Oct-06 05:30N 32°36' W 091°09'0 0.6
2017-Oct-06 05:00N 32°36' W 091°08'0 0.0
2017-Oct-06 04:30N 32°36' W 091°08'0 0.0
2017-Oct-06 04:00N 32°36' W 091°08'0 0.0
2017-Oct-06 03:30N 32°36' W 091°08'0 0.9
2017-Oct-06 03:00N 32°35' W 091°08'2 4.9
2017-Oct-06 02:30N 32°34' W 091°06'2 4.2
2017-Oct-06 01:58N 32°31' W 091°06'3 5.7
2017-Oct-06 01:30N 32°29' W 091°07'3 5.6
2017-Oct-06 01:00N 32°27' W 091°05'3 5.2
2017-Oct-06 00:30N 32°26' W 091°02'2 4.7
2017-Oct-06 00:00N 32°24' W 090°60'3 5.3
2017-Oct-05 23:30N 32°22' W 091°00'3 5.0
2017-Oct-05 23:00N 32°21' W 090°58'2 4.9
2017-Oct-05 22:30N 32°21' W 090°55'2 4.2
2017-Oct-05 22:00N 32°19' W 090°55'3 5.4
2017-Oct-05 21:30N 32°17' W 090°57'2 4.6
2017-Oct-05 21:00N 32°15' W 090°59'3 5.1
2017-Oct-05 20:30N 32°12' W 090°59'3 5.2
2017-Oct-05 20:00N 32°10' W 091°00'2 4.8
2017-Oct-05 19:30N 32°08' W 091°01'4 5.0
2017-Oct-05 18:39N 32°08' W 091°06'1 4.9
2017-Oct-05 18:30N 32°08' W 091°07'5 5.1
2017-Oct-05 17:31N 32°03' W 091°03'0 5.3
2017-Oct-05 17:30N 32°03' W 091°03'3 5.6
2017-Oct-05 17:00N 32°01' W 091°05'25 3.2
2017-Oct-05 09:13N 31°42' W 091°24'  
Track history (hours):
 
Tides and Currents Weather Stations Pressure Air Temp Water Temp Dewpoint Dewpoint Depression Visibility Wind Speed Wind Dir Waves Ship Positions

Randy J. Adams

Owner: Blessey Enterprises, Inc., Harahan, LA. More information available from US FCC via Universal Licensing System and Coast Guard Vessel Documentation Center.

Last reported at 2017-Oct-10 22:30 UTC. Time now 2017-Oct-22 08:14 UTC.
Position N 32°01' W 091°04'.
Warning: this ship's position is 11 days out of date.

Length 27 m; draft 2.7 m.

Type: Towing. MMSI: 367555480.

Date/timePositionNaut miles runAvg speedWind from/ knotsBaromVisibWave heightAir tempDewpointWater temp
2017-Oct-10 22:30N 32°01' W 091°04'6 7.3
2017-Oct-10 21:45N 32°06' W 091°06'3 5.1
2017-Oct-10 21:14N 32°07' W 091°03'2 8.0
2017-Oct-10 21:00N 32°07' W 091°01'4 8.8
2017-Oct-10 20:30N 32°11' W 090°60'5 9.8
2017-Oct-10 20:00N 32°16' W 090°58'3 6.3
2017-Oct-10 19:30N 32°18' W 090°55'0 0.0
2017-Oct-10 19:00N 32°18' W 090°55'0 0.0
2017-Oct-10 18:30N 32°18' W 090°55'0 0.0
2017-Oct-10 18:00N 32°18' W 090°55'0 0.0
2017-Oct-10 17:30N 32°18' W 090°55'0 0.0
2017-Oct-10 17:00N 32°18' W 090°55'0 0.0
2017-Oct-10 16:30N 32°18' W 090°55'0 0.0
2017-Oct-10 16:00N 32°18' W 090°55'0 0.0
2017-Oct-10 15:30N 32°18' W 090°55'0 0.0
2017-Oct-10 15:00N 32°18' W 090°55'0 0.0
2017-Oct-10 14:00N 32°18' W 090°55'0 0.0
2017-Oct-10 13:30N 32°18' W 090°55'1 1.5
2017-Oct-10 13:00N 32°19' W 090°54'3 5.9
2017-Oct-10 12:30N 32°21' W 090°57'3 6.4
2017-Oct-10 12:00N 32°22' W 091°00'4 7.0
2017-Oct-10 11:30N 32°26' W 091°01'4 8.4
2017-Oct-10 11:00N 32°28' W 091°06'5 7.8
2017-Oct-10 10:18N 32°33' W 091°06'3 8.6
2017-Oct-10 10:00N 32°35' W 091°08'5 7.8
2017-Oct-10 09:23N 32°40' W 091°08'  
2017-Oct-06 12:32N 32°46' W 091°10'0 0.1
2017-Oct-06 12:28N 32°46' W 091°10'4 1.6
2017-Oct-06 09:51N 32°44' W 091°05'0 0.0
2017-Oct-06 09:30N 32°44' W 091°05'1 1.4
2017-Oct-06 09:00N 32°44' W 091°04'0 0.0
2017-Oct-06 08:30N 32°44' W 091°04'0 0.4
2017-Oct-06 08:00N 32°44' W 091°04'5 3.5
2017-Oct-06 06:36N 32°40' W 091°08'1 4.1
2017-Oct-06 06:28N 32°40' W 091°08'2 4.2
2017-Oct-06 06:00N 32°38' W 091°09'2 4.6
2017-Oct-06 05:30N 32°36' W 091°09'0 0.6
2017-Oct-06 05:00N 32°36' W 091°08'0 0.0
2017-Oct-06 04:30N 32°36' W 091°08'0 0.0
2017-Oct-06 04:00N 32°36' W 091°08'0 0.0
2017-Oct-06 03:30N 32°36' W 091°08'0 0.9
2017-Oct-06 03:00N 32°35' W 091°08'2 4.9
2017-Oct-06 02:30N 32°34' W 091°06'2 4.2
2017-Oct-06 01:58N 32°31' W 091°06'3 5.7
2017-Oct-06 01:30N 32°29' W 091°07'3 5.6
2017-Oct-06 01:00N 32°27' W 091°05'3 5.2
2017-Oct-06 00:30N 32°26' W 091°02'2 4.7
2017-Oct-06 00:00N 32°24' W 090°60'3 5.3
2017-Oct-05 23:30N 32°22' W 091°00'3 5.0
2017-Oct-05 23:00N 32°21' W 090°58'2 4.9
2017-Oct-05 22:30N 32°21' W 090°55'2 4.2
2017-Oct-05 22:00N 32°19' W 090°55'3 5.4
2017-Oct-05 21:30N 32°17' W 090°57'2 4.6
2017-Oct-05 21:00N 32°15' W 090°59'3 5.1
2017-Oct-05 20:30N 32°12' W 090°59'3 5.2
2017-Oct-05 20:00N 32°10' W 091°00'2 4.8
2017-Oct-05 19:30N 32°08' W 091°01'4 5.0
2017-Oct-05 18:39N 32°08' W 091°06'1 4.9
2017-Oct-05 18:30N 32°08' W 091°07'5 5.1
2017-Oct-05 17:31N 32°03' W 091°03'0 5.3
2017-Oct-05 17:30N 32°03' W 091°03'3 5.6
2017-Oct-05 17:00N 32°01' W 091°05'25 3.2
2017-Oct-05 09:13N 31°42' W 091°24'  

Dump ship's entire track history